sensor_id;sensor_type;location;lat;lon;timestamp;P1;durP1;ratioP1;P2;durP2;ratioP2
39880;SDS011;25554;44.954;10.068;2023-12-20T00:00:10;11.27;;;5.80;;
39880;SDS011;25554;44.954;10.068;2023-12-20T00:02:36;8.85;;;4.57;;
39880;SDS011;25554;44.954;10.068;2023-12-20T00:07:29;11.48;;;5.70;;
39880;SDS011;25554;44.954;10.068;2023-12-20T00:09:55;9.02;;;4.80;;
39880;SDS011;25554;44.954;10.068;2023-12-20T00:12:22;7.45;;;4.35;;
39880;SDS011;25554;44.954;10.068;2023-12-20T00:14:48;8.82;;;5.07;;
39880;SDS011;25554;44.954;10.068;2023-12-20T00:19:41;8.32;;;5.28;;
39880;SDS011;25554;44.954;10.068;2023-12-20T00:24:33;8.85;;;4.70;;
39880;SDS011;25554;44.954;10.068;2023-12-20T00:29:26;8.55;;;5.22;;
39880;SDS011;25554;44.954;10.068;2023-12-20T00:34:18;12.60;;;5.80;;
39880;SDS011;25554;44.954;10.068;2023-12-20T00:39:10;8.98;;;5.05;;
39880;SDS011;25554;44.954;10.068;2023-12-20T00:44:03;9.52;;;5.18;;
39880;SDS011;25554;44.954;10.068;2023-12-20T00:46:29;11.18;;;5.38;;
39880;SDS011;25554;44.954;10.068;2023-12-20T00:48:56;10.30;;;5.50;;
39880;SDS011;25554;44.954;10.068;2023-12-20T00:51:22;10.02;;;5.05;;
39880;SDS011;25554;44.954;10.068;2023-12-20T00:56:15;9.77;;;5.43;;
39880;SDS011;25554;44.954;10.068;2023-12-20T00:58:42;9.18;;;5.72;;
39880;SDS011;25554;44.954;10.068;2023-12-20T01:01:08;11.73;;;6.80;;
39880;SDS011;25554;44.954;10.068;2023-12-20T01:06:01;13.95;;;6.93;;
39880;SDS011;25554;44.954;10.068;2023-12-20T01:08:28;12.63;;;6.63;;
39880;SDS011;25554;44.954;10.068;2023-12-20T01:10:54;14.10;;;7.10;;
39880;SDS011;25554;44.954;10.068;2023-12-20T01:15:47;8.77;;;5.15;;
39880;SDS011;25554;44.954;10.068;2023-12-20T01:18:13;10.82;;;5.60;;
39880;SDS011;25554;44.954;10.068;2023-12-20T01:20:40;16.00;;;5.88;;
39880;SDS011;25554;44.954;10.068;2023-12-20T01:23:06;11.23;;;5.93;;
39880;SDS011;25554;44.954;10.068;2023-12-20T01:27:59;12.23;;;5.82;;
39880;SDS011;25554;44.954;10.068;2023-12-20T01:32:51;10.35;;;4.82;;
39880;SDS011;25554;44.954;10.068;2023-12-20T01:35:17;11.38;;;5.03;;
39880;SDS011;25554;44.954;10.068;2023-12-20T01:40:10;9.00;;;4.15;;
39880;SDS011;25554;44.954;10.068;2023-12-20T01:42:36;6.22;;;4.13;;
39880;SDS011;25554;44.954;10.068;2023-12-20T01:47:29;9.23;;;4.43;;
39880;SDS011;25554;44.954;10.068;2023-12-20T01:49:56;10.02;;;4.75;;
39880;SDS011;25554;44.954;10.068;2023-12-20T01:52:22;7.65;;;4.38;;
39880;SDS011;25554;44.954;10.068;2023-12-20T01:54:50;8.07;;;3.90;;
39880;SDS011;25554;44.954;10.068;2023-12-20T01:57:16;9.15;;;4.40;;
39880;SDS011;25554;44.954;10.068;2023-12-20T01:59:43;6.93;;;4.10;;
39880;SDS011;25554;44.954;10.068;2023-12-20T02:02:10;7.63;;;4.28;;
39880;SDS011;25554;44.954;10.068;2023-12-20T02:04:38;7.47;;;3.92;;
39880;SDS011;25554;44.954;10.068;2023-12-20T02:07:04;8.55;;;4.63;;
39880;SDS011;25554;44.954;10.068;2023-12-20T02:09:32;8.23;;;3.83;;
39880;SDS011;25554;44.954;10.068;2023-12-20T02:11:59;7.85;;;5.10;;
39880;SDS011;25554;44.954;10.068;2023-12-20T02:14:25;8.50;;;4.13;;
39880;SDS011;25554;44.954;10.068;2023-12-20T02:19:18;6.18;;;3.72;;
39880;SDS011;25554;44.954;10.068;2023-12-20T02:21:46;8.00;;;4.20;;
39880;SDS011;25554;44.954;10.068;2023-12-20T02:26:38;8.73;;;4.35;;
39880;SDS011;25554;44.954;10.068;2023-12-20T02:29:05;9.07;;;4.22;;
39880;SDS011;25554;44.954;10.068;2023-12-20T02:31:32;7.90;;;4.43;;
39880;SDS011;25554;44.954;10.068;2023-12-20T02:33:58;5.90;;;3.42;;
39880;SDS011;25554;44.954;10.068;2023-12-20T02:36:25;7.18;;;3.60;;
39880;SDS011;25554;44.954;10.068;2023-12-20T02:38:51;6.78;;;3.80;;
39880;SDS011;25554;44.954;10.068;2023-12-20T02:41:17;6.40;;;4.55;;
39880;SDS011;25554;44.954;10.068;2023-12-20T02:46:11;10.68;;;3.67;;
39880;SDS011;25554;44.954;10.068;2023-12-20T02:48:39;6.53;;;4.10;;
39880;SDS011;25554;44.954;10.068;2023-12-20T02:53:31;4.88;;;3.17;;
39880;SDS011;25554;44.954;10.068;2023-12-20T02:58:24;6.10;;;3.30;;
39880;SDS011;25554;44.954;10.068;2023-12-20T03:03:16;10.98;;;4.00;;
39880;SDS011;25554;44.954;10.068;2023-12-20T03:05:43;7.13;;;3.75;;
39880;SDS011;25554;44.954;10.068;2023-12-20T03:08:10;5.43;;;3.42;;
39880;SDS011;25554;44.954;10.068;2023-12-20T03:13:03;5.82;;;3.53;;
39880;SDS011;25554;44.954;10.068;2023-12-20T03:15:29;3.17;;;2.85;;
39880;SDS011;25554;44.954;10.068;2023-12-20T03:20:22;5.50;;;3.03;;
39880;SDS011;25554;44.954;10.068;2023-12-20T03:22:48;8.02;;;3.80;;
39880;SDS011;25554;44.954;10.068;2023-12-20T03:27:40;5.47;;;3.10;;
39880;SDS011;25554;44.954;10.068;2023-12-20T03:32:33;4.93;;;3.03;;
39880;SDS011;25554;44.954;10.068;2023-12-20T03:37:26;5.30;;;3.00;;
39880;SDS011;25554;44.954;10.068;2023-12-20T03:39:52;6.15;;;3.45;;
39880;SDS011;25554;44.954;10.068;2023-12-20T03:42:18;6.85;;;3.58;;
39880;SDS011;25554;44.954;10.068;2023-12-20T03:44:45;5.55;;;3.70;;
39880;SDS011;25554;44.954;10.068;2023-12-20T03:49:37;5.63;;;3.65;;
39880;SDS011;25554;44.954;10.068;2023-12-20T03:52:04;7.50;;;4.05;;
39880;SDS011;25554;44.954;10.068;2023-12-20T03:54:31;6.07;;;3.88;;
39880;SDS011;25554;44.954;10.068;2023-12-20T03:59:23;8.00;;;3.63;;
39880;SDS011;25554;44.954;10.068;2023-12-20T04:04:16;5.63;;;3.25;;
39880;SDS011;25554;44.954;10.068;2023-12-20T04:09:08;7.72;;;3.97;;
39880;SDS011;25554;44.954;10.068;2023-12-20T04:14:02;5.82;;;3.10;;
39880;SDS011;25554;44.954;10.068;2023-12-20T04:18:54;4.90;;;2.88;;
39880;SDS011;25554;44.954;10.068;2023-12-20T04:21:20;4.88;;;2.67;;
39880;SDS011;25554;44.954;10.068;2023-12-20T04:26:13;6.00;;;3.60;;
39880;SDS011;25554;44.954;10.068;2023-12-20T04:28:39;9.45;;;3.30;;
39880;SDS011;25554;44.954;10.068;2023-12-20T04:31:05;7.70;;;3.42;;
39880;SDS011;25554;44.954;10.068;2023-12-20T04:35:58;5.00;;;3.10;;
39880;SDS011;25554;44.954;10.068;2023-12-20T04:38:26;5.47;;;2.83;;
39880;SDS011;25554;44.954;10.068;2023-12-20T04:40:52;6.22;;;3.55;;
39880;SDS011;25554;44.954;10.068;2023-12-20T04:45:44;4.25;;;3.15;;
39880;SDS011;25554;44.954;10.068;2023-12-20T04:50:37;8.07;;;3.15;;
39880;SDS011;25554;44.954;10.068;2023-12-20T04:53:04;8.73;;;3.63;;
39880;SDS011;25554;44.954;10.068;2023-12-20T04:55:30;6.15;;;3.40;;
39880;SDS011;25554;44.954;10.068;2023-12-20T05:00:22;7.65;;;3.13;;
39880;SDS011;25554;44.954;10.068;2023-12-20T05:05:15;4.63;;;2.47;;
39880;SDS011;25554;44.954;10.068;2023-12-20T05:07:43;5.20;;;2.50;;
39880;SDS011;25554;44.954;10.068;2023-12-20T05:10:10;5.45;;;3.25;;
39880;SDS011;25554;44.954;10.068;2023-12-20T05:15:03;6.00;;;3.40;;
39880;SDS011;25554;44.954;10.068;2023-12-20T05:17:31;4.65;;;3.20;;
39880;SDS011;25554;44.954;10.068;2023-12-20T05:19:57;5.03;;;2.78;;
39880;SDS011;25554;44.954;10.068;2023-12-20T05:24:50;5.43;;;3.05;;
39880;SDS011;25554;44.954;10.068;2023-12-20T05:29:42;5.88;;;3.40;;
39880;SDS011;25554;44.954;10.068;2023-12-20T05:34:35;5.37;;;2.53;;
39880;SDS011;25554;44.954;10.068;2023-12-20T05:37:02;7.05;;;3.70;;
39880;SDS011;25554;44.954;10.068;2023-12-20T05:39:28;5.13;;;3.00;;
39880;SDS011;25554;44.954;10.068;2023-12-20T05:41:56;5.60;;;2.85;;
39880;SDS011;25554;44.954;10.068;2023-12-20T05:44:23;6.78;;;3.25;;
39880;SDS011;25554;44.954;10.068;2023-12-20T05:49:15;8.25;;;4.00;;
39880;SDS011;25554;44.954;10.068;2023-12-20T05:54:08;5.10;;;3.25;;
39880;SDS011;25554;44.954;10.068;2023-12-20T05:56:35;6.30;;;3.58;;
39880;SDS011;25554;44.954;10.068;2023-12-20T06:01:27;5.53;;;3.63;;
39880;SDS011;25554;44.954;10.068;2023-12-20T06:03:53;4.05;;;2.60;;
39880;SDS011;25554;44.954;10.068;2023-12-20T06:08:46;6.13;;;3.50;;
39880;SDS011;25554;44.954;10.068;2023-12-20T06:13:39;5.53;;;2.92;;
39880;SDS011;25554;44.954;10.068;2023-12-20T06:16:05;8.55;;;4.57;;
39880;SDS011;25554;44.954;10.068;2023-12-20T06:18:33;8.07;;;4.32;;
39880;SDS011;25554;44.954;10.068;2023-12-20T06:20:59;7.03;;;3.83;;
39880;SDS011;25554;44.954;10.068;2023-12-20T06:25:53;7.05;;;4.07;;
39880;SDS011;25554;44.954;10.068;2023-12-20T06:30:45;12.57;;;4.53;;
39880;SDS011;25554;44.954;10.068;2023-12-20T06:33:15;10.35;;;5.20;;
39880;SDS011;25554;44.954;10.068;2023-12-20T06:35:41;8.75;;;5.40;;
39880;SDS011;25554;44.954;10.068;2023-12-20T06:40:35;10.73;;;4.72;;
39880;SDS011;25554;44.954;10.068;2023-12-20T06:45:27;11.20;;;4.60;;
39880;SDS011;25554;44.954;10.068;2023-12-20T06:50:20;12.30;;;6.07;;
39880;SDS011;25554;44.954;10.068;2023-12-20T06:52:46;10.27;;;6.63;;
39880;SDS011;25554;44.954;10.068;2023-12-20T06:55:13;16.85;;;6.88;;
39880;SDS011;25554;44.954;10.068;2023-12-20T07:00:06;11.63;;;6.78;;
39880;SDS011;25554;44.954;10.068;2023-12-20T07:02:34;12.95;;;6.55;;
39880;SDS011;25554;44.954;10.068;2023-12-20T07:05:00;10.88;;;6.20;;
39880;SDS011;25554;44.954;10.068;2023-12-20T07:09:53;10.80;;;6.55;;
39880;SDS011;25554;44.954;10.068;2023-12-20T07:14:45;11.65;;;6.50;;
39880;SDS011;25554;44.954;10.068;2023-12-20T07:17:12;9.93;;;6.65;;
39880;SDS011;25554;44.954;10.068;2023-12-20T07:19:41;11.20;;;6.80;;
39880;SDS011;25554;44.954;10.068;2023-12-20T07:22:08;12.73;;;6.40;;
39880;SDS011;25554;44.954;10.068;2023-12-20T07:24:34;12.57;;;6.55;;
39880;SDS011;25554;44.954;10.068;2023-12-20T07:29:27;14.32;;;6.47;;
39880;SDS011;25554;44.954;10.068;2023-12-20T07:34:22;14.90;;;5.70;;
39880;SDS011;25554;44.954;10.068;2023-12-20T07:36:49;8.27;;;5.68;;
39880;SDS011;25554;44.954;10.068;2023-12-20T07:41:41;9.48;;;5.18;;
39880;SDS011;25554;44.954;10.068;2023-12-20T07:46:34;11.02;;;5.03;;
39880;SDS011;25554;44.954;10.068;2023-12-20T07:51:26;11.75;;;5.55;;
39880;SDS011;25554;44.954;10.068;2023-12-20T07:56:19;10.05;;;5.90;;
39880;SDS011;25554;44.954;10.068;2023-12-20T07:58:46;9.07;;;5.65;;
39880;SDS011;25554;44.954;10.068;2023-12-20T08:01:15;9.07;;;5.40;;
39880;SDS011;25554;44.954;10.068;2023-12-20T08:03:42;13.73;;;6.22;;
39880;SDS011;25554;44.954;10.068;2023-12-20T08:08:35;10.43;;;5.50;;
39880;SDS011;25554;44.954;10.068;2023-12-20T08:13:28;9.88;;;5.32;;
39880;SDS011;25554;44.954;10.068;2023-12-20T08:15:55;9.05;;;5.30;;
39880;SDS011;25554;44.954;10.068;2023-12-20T08:18:21;10.63;;;5.93;;
39880;SDS011;25554;44.954;10.068;2023-12-20T08:20:49;10.70;;;6.18;;
39880;SDS011;25554;44.954;10.068;2023-12-20T08:23:15;10.82;;;5.40;;
39880;SDS011;25554;44.954;10.068;2023-12-20T08:25:42;14.63;;;5.97;;
39880;SDS011;25554;44.954;10.068;2023-12-20T08:28:08;11.80;;;5.43;;
39880;SDS011;25554;44.954;10.068;2023-12-20T08:30:34;12.10;;;5.35;;
39880;SDS011;25554;44.954;10.068;2023-12-20T08:35:28;11.73;;;5.78;;
39880;SDS011;25554;44.954;10.068;2023-12-20T08:40:22;11.93;;;5.05;;
39880;SDS011;25554;44.954;10.068;2023-12-20T08:42:48;8.48;;;5.53;;
39880;SDS011;25554;44.954;10.068;2023-12-20T08:45:15;10.40;;;5.90;;
39880;SDS011;25554;44.954;10.068;2023-12-20T08:50:09;10.15;;;5.75;;
39880;SDS011;25554;44.954;10.068;2023-12-20T08:52:36;9.63;;;5.15;;
39880;SDS011;25554;44.954;10.068;2023-12-20T08:57:29;12.38;;;5.28;;
39880;SDS011;25554;44.954;10.068;2023-12-20T08:59:57;12.63;;;5.63;;
39880;SDS011;25554;44.954;10.068;2023-12-20T09:04:49;8.10;;;5.30;;
39880;SDS011;25554;44.954;10.068;2023-12-20T09:09:52;13.45;;;5.45;;
39880;SDS011;25554;44.954;10.068;2023-12-20T09:12:19;10.32;;;5.70;;
39880;SDS011;25554;44.954;10.068;2023-12-20T09:14:46;11.15;;;6.43;;
39880;SDS011;25554;44.954;10.068;2023-12-20T09:17:13;10.75;;;7.47;;
39880;SDS011;25554;44.954;10.068;2023-12-20T09:19:39;12.30;;;6.63;;
39880;SDS011;25554;44.954;10.068;2023-12-20T09:22:06;9.82;;;5.57;;
39880;SDS011;25554;44.954;10.068;2023-12-20T09:24:33;11.23;;;5.97;;
39880;SDS011;25554;44.954;10.068;2023-12-20T09:29:25;11.60;;;7.80;;
39880;SDS011;25554;44.954;10.068;2023-12-20T09:34:18;11.60;;;5.97;;
39880;SDS011;25554;44.954;10.068;2023-12-20T09:36:44;9.05;;;6.07;;
39880;SDS011;25554;44.954;10.068;2023-12-20T09:39:14;12.90;;;6.50;;
39880;SDS011;25554;44.954;10.068;2023-12-20T09:41:44;8.07;;;5.50;;
39880;SDS011;25554;44.954;10.068;2023-12-20T09:44:13;8.00;;;4.80;;
39880;SDS011;25554;44.954;10.068;2023-12-20T09:46:44;6.40;;;4.40;;
39880;SDS011;25554;44.954;10.068;2023-12-20T09:49:15;11.20;;;5.35;;
39880;SDS011;25554;44.954;10.068;2023-12-20T09:51:44;17.15;;;6.20;;
39880;SDS011;25554;44.954;10.068;2023-12-20T09:54:16;10.57;;;5.35;;
39880;SDS011;25554;44.954;10.068;2023-12-20T09:56:46;5.95;;;4.57;;
39880;SDS011;25554;44.954;10.068;2023-12-20T09:59:13;8.80;;;5.07;;
39880;SDS011;25554;44.954;10.068;2023-12-20T10:01:40;10.98;;;5.45;;
39880;SDS011;25554;44.954;10.068;2023-12-20T10:04:09;12.25;;;5.20;;
39880;SDS011;25554;44.954;10.068;2023-12-20T10:06:41;10.30;;;4.95;;
39880;SDS011;25554;44.954;10.068;2023-12-20T10:09:11;17.77;;;6.63;;
39880;SDS011;25554;44.954;10.068;2023-12-20T10:11:38;19.00;;;8.98;;
39880;SDS011;25554;44.954;10.068;2023-12-20T10:14:05;17.85;;;9.93;;
39880;SDS011;25554;44.954;10.068;2023-12-20T10:16:33;18.50;;;8.93;;
39880;SDS011;25554;44.954;10.068;2023-12-20T10:19:00;16.58;;;8.27;;
39880;SDS011;25554;44.954;10.068;2023-12-20T10:21:29;15.48;;;8.23;;
39880;SDS011;25554;44.954;10.068;2023-12-20T10:26:25;11.07;;;6.25;;
39880;SDS011;25554;44.954;10.068;2023-12-20T10:28:56;7.72;;;4.88;;
39880;SDS011;25554;44.954;10.068;2023-12-20T10:31:30;8.40;;;4.90;;
39880;SDS011;25554;44.954;10.068;2023-12-20T10:33:58;11.88;;;5.72;;
39880;SDS011;25554;44.954;10.068;2023-12-20T10:36:26;10.45;;;5.22;;
39880;SDS011;25554;44.954;10.068;2023-12-20T10:38:54;8.35;;;4.85;;
39880;SDS011;25554;44.954;10.068;2023-12-20T10:41:26;10.25;;;4.78;;
39880;SDS011;25554;44.954;10.068;2023-12-20T10:44:02;7.72;;;5.32;;
39880;SDS011;25554;44.954;10.068;2023-12-20T10:46:30;11.38;;;5.40;;
39880;SDS011;25554;44.954;10.068;2023-12-20T10:49:03;10.05;;;5.03;;
39880;SDS011;25554;44.954;10.068;2023-12-20T10:51:30;12.13;;;5.38;;
39880;SDS011;25554;44.954;10.068;2023-12-20T10:53:57;10.38;;;5.82;;
39880;SDS011;25554;44.954;10.068;2023-12-20T10:56:24;8.05;;;4.88;;
39880;SDS011;25554;44.954;10.068;2023-12-20T10:58:57;10.55;;;5.63;;
39880;SDS011;25554;44.954;10.068;2023-12-20T11:01:28;8.63;;;5.68;;
39880;SDS011;25554;44.954;10.068;2023-12-20T11:03:55;8.18;;;4.95;;
39880;SDS011;25554;44.954;10.068;2023-12-20T11:08:50;11.43;;;5.88;;
39880;SDS011;25554;44.954;10.068;2023-12-20T11:11:39;8.95;;;5.80;;
39880;SDS011;25554;44.954;10.068;2023-12-20T11:14:23;10.77;;;6.03;;
39880;SDS011;25554;44.954;10.068;2023-12-20T11:17:05;11.55;;;6.72;;
39880;SDS011;25554;44.954;10.068;2023-12-20T11:19:35;8.68;;;5.68;;
39880;SDS011;25554;44.954;10.068;2023-12-20T11:22:03;10.23;;;5.97;;
39880;SDS011;25554;44.954;10.068;2023-12-20T11:24:31;9.35;;;5.97;;
39880;SDS011;25554;44.954;10.068;2023-12-20T11:26:59;9.73;;;5.93;;
39880;SDS011;25554;44.954;10.068;2023-12-20T11:29:34;11.68;;;6.35;;
39880;SDS011;25554;44.954;10.068;2023-12-20T11:32:03;8.57;;;6.00;;
39880;SDS011;25554;44.954;10.068;2023-12-20T11:34:54;10.57;;;5.80;;
39880;SDS011;25554;44.954;10.068;2023-12-20T11:37:30;10.27;;;6.18;;
39880;SDS011;25554;44.954;10.068;2023-12-20T11:40:02;12.70;;;6.72;;
39880;SDS011;25554;44.954;10.068;2023-12-20T11:42:42;11.90;;;6.65;;
39880;SDS011;25554;44.954;10.068;2023-12-20T11:45:18;17.25;;;9.95;;
39880;SDS011;25554;44.954;10.068;2023-12-20T11:47:47;9.48;;;6.72;;
39880;SDS011;25554;44.954;10.068;2023-12-20T11:50:21;13.27;;;6.78;;
39880;SDS011;25554;44.954;10.068;2023-12-20T11:52:49;12.07;;;7.20;;
39880;SDS011;25554;44.954;10.068;2023-12-20T11:55:17;12.15;;;7.60;;
39880;SDS011;25554;44.954;10.068;2023-12-20T12:00:10;14.55;;;7.75;;
39880;SDS011;25554;44.954;10.068;2023-12-20T12:02:40;11.38;;;8.15;;
39880;SDS011;25554;44.954;10.068;2023-12-20T12:05:07;10.27;;;7.78;;
39880;SDS011;25554;44.954;10.068;2023-12-20T12:07:34;15.40;;;8.32;;
39880;SDS011;25554;44.954;10.068;2023-12-20T12:10:01;10.32;;;6.80;;
39880;SDS011;25554;44.954;10.068;2023-12-20T12:12:29;18.25;;;8.60;;
39880;SDS011;25554;44.954;10.068;2023-12-20T12:14:55;11.88;;;7.25;;
39880;SDS011;25554;44.954;10.068;2023-12-20T12:17:23;13.05;;;7.15;;
39880;SDS011;25554;44.954;10.068;2023-12-20T12:19:50;15.35;;;8.70;;
39880;SDS011;25554;44.954;10.068;2023-12-20T12:22:27;12.75;;;8.15;;
39880;SDS011;25554;44.954;10.068;2023-12-20T12:24:53;14.95;;;8.63;;
39880;SDS011;25554;44.954;10.068;2023-12-20T12:30:02;14.57;;;7.75;;
39880;SDS011;25554;44.954;10.068;2023-12-20T12:32:30;14.88;;;8.52;;
39880;SDS011;25554;44.954;10.068;2023-12-20T12:34:57;12.38;;;7.80;;
39880;SDS011;25554;44.954;10.068;2023-12-20T12:39:52;10.15;;;7.35;;
39880;SDS011;25554;44.954;10.068;2023-12-20T12:42:19;15.75;;;8.50;;
39880;SDS011;25554;44.954;10.068;2023-12-20T12:44:47;17.33;;;8.27;;
39880;SDS011;25554;44.954;10.068;2023-12-20T12:49:40;18.23;;;9.73;;
39880;SDS011;25554;44.954;10.068;2023-12-20T12:52:06;14.38;;;9.27;;
39880;SDS011;25554;44.954;10.068;2023-12-20T12:54:33;17.00;;;10.30;;
39880;SDS011;25554;44.954;10.068;2023-12-20T12:56:59;17.17;;;10.25;;
39880;SDS011;25554;44.954;10.068;2023-12-20T12:59:25;19.63;;;12.25;;
39880;SDS011;25554;44.954;10.068;2023-12-20T13:01:52;21.25;;;12.43;;
39880;SDS011;25554;44.954;10.068;2023-12-20T13:04:18;19.83;;;11.70;;
39880;SDS011;25554;44.954;10.068;2023-12-20T13:06:45;22.10;;;12.23;;
39880;SDS011;25554;44.954;10.068;2023-12-20T13:09:12;22.42;;;12.60;;
39880;SDS011;25554;44.954;10.068;2023-12-20T13:14:05;22.77;;;12.35;;
39880;SDS011;25554;44.954;10.068;2023-12-20T13:16:33;19.98;;;13.13;;
39880;SDS011;25554;44.954;10.068;2023-12-20T13:19:00;21.85;;;13.20;;
39880;SDS011;25554;44.954;10.068;2023-12-20T13:21:26;26.70;;;14.38;;
39880;SDS011;25554;44.954;10.068;2023-12-20T13:23:52;20.50;;;13.63;;
39880;SDS011;25554;44.954;10.068;2023-12-20T13:26:20;24.45;;;14.20;;
39880;SDS011;25554;44.954;10.068;2023-12-20T13:28:46;21.58;;;13.02;;
39880;SDS011;25554;44.954;10.068;2023-12-20T13:31:12;22.88;;;14.10;;
39880;SDS011;25554;44.954;10.068;2023-12-20T13:33:38;17.95;;;13.25;;
39880;SDS011;25554;44.954;10.068;2023-12-20T13:36:06;22.88;;;14.75;;
39880;SDS011;25554;44.954;10.068;2023-12-20T13:38:32;21.17;;;13.98;;
39880;SDS011;25554;44.954;10.068;2023-12-20T13:43:25;20.77;;;13.48;;
39880;SDS011;25554;44.954;10.068;2023-12-20T13:45:51;23.83;;;14.20;;
39880;SDS011;25554;44.954;10.068;2023-12-20T13:50:44;20.77;;;12.73;;
39880;SDS011;25554;44.954;10.068;2023-12-20T13:55:37;18.30;;;12.32;;
39880;SDS011;25554;44.954;10.068;2023-12-20T13:58:03;22.83;;;13.75;;
39880;SDS011;25554;44.954;10.068;2023-12-20T14:00:29;17.90;;;12.80;;
39880;SDS011;25554;44.954;10.068;2023-12-20T14:02:56;20.08;;;12.13;;
39880;SDS011;25554;44.954;10.068;2023-12-20T14:05:22;20.77;;;12.98;;
39880;SDS011;25554;44.954;10.068;2023-12-20T14:07:49;20.85;;;13.75;;
39880;SDS011;25554;44.954;10.068;2023-12-20T14:10:16;26.00;;;14.25;;
39880;SDS011;25554;44.954;10.068;2023-12-20T14:12:42;19.58;;;12.18;;
39880;SDS011;25554;44.954;10.068;2023-12-20T14:15:10;19.98;;;13.27;;
39880;SDS011;25554;44.954;10.068;2023-12-20T14:17:39;27.17;;;15.65;;
39880;SDS011;25554;44.954;10.068;2023-12-20T14:20:06;25.27;;;15.30;;
39880;SDS011;25554;44.954;10.068;2023-12-20T14:22:33;29.95;;;17.58;;
39880;SDS011;25554;44.954;10.068;2023-12-20T14:25:00;29.13;;;18.17;;
39880;SDS011;25554;44.954;10.068;2023-12-20T14:27:27;25.65;;;16.33;;
39880;SDS011;25554;44.954;10.068;2023-12-20T14:29:54;24.00;;;14.00;;
39880;SDS011;25554;44.954;10.068;2023-12-20T14:32:20;24.58;;;13.27;;
39880;SDS011;25554;44.954;10.068;2023-12-20T14:34:47;26.63;;;13.15;;
39880;SDS011;25554;44.954;10.068;2023-12-20T14:37:13;16.88;;;11.85;;
39880;SDS011;25554;44.954;10.068;2023-12-20T14:39:40;15.63;;;11.65;;
39880;SDS011;25554;44.954;10.068;2023-12-20T14:42:07;18.45;;;11.45;;
39880;SDS011;25554;44.954;10.068;2023-12-20T14:44:42;18.60;;;13.73;;
39880;SDS011;25554;44.954;10.068;2023-12-20T14:47:09;17.98;;;11.60;;
39880;SDS011;25554;44.954;10.068;2023-12-20T14:49:36;21.10;;;13.27;;
39880;SDS011;25554;44.954;10.068;2023-12-20T14:52:03;17.77;;;11.98;;
39880;SDS011;25554;44.954;10.068;2023-12-20T14:54:30;17.10;;;11.73;;
39880;SDS011;25554;44.954;10.068;2023-12-20T14:56:57;19.55;;;11.48;;
39880;SDS011;25554;44.954;10.068;2023-12-20T14:59:23;22.65;;;11.88;;
39880;SDS011;25554;44.954;10.068;2023-12-20T15:01:50;17.85;;;11.02;;
39880;SDS011;25554;44.954;10.068;2023-12-20T15:04:17;19.42;;;11.05;;
39880;SDS011;25554;44.954;10.068;2023-12-20T15:06:43;18.80;;;12.02;;
39880;SDS011;25554;44.954;10.068;2023-12-20T15:09:10;15.55;;;10.88;;
39880;SDS011;25554;44.954;10.068;2023-12-20T15:11:37;16.75;;;10.75;;
39880;SDS011;25554;44.954;10.068;2023-12-20T15:16:29;16.70;;;10.98;;
39880;SDS011;25554;44.954;10.068;2023-12-20T15:18:56;17.85;;;11.77;;
39880;SDS011;25554;44.954;10.068;2023-12-20T15:21:23;20.98;;;11.85;;
39880;SDS011;25554;44.954;10.068;2023-12-20T15:23:57;18.30;;;11.77;;
39880;SDS011;25554;44.954;10.068;2023-12-20T15:26:32;21.85;;;12.65;;
39880;SDS011;25554;44.954;10.068;2023-12-20T15:28:58;22.58;;;13.65;;
39880;SDS011;25554;44.954;10.068;2023-12-20T15:31:27;19.98;;;11.43;;
39880;SDS011;25554;44.954;10.068;2023-12-20T15:33:53;20.77;;;12.73;;
39880;SDS011;25554;44.954;10.068;2023-12-20T15:36:20;19.73;;;13.18;;
39880;SDS011;25554;44.954;10.068;2023-12-20T15:38:47;21.48;;;12.85;;
39880;SDS011;25554;44.954;10.068;2023-12-20T15:43:46;24.75;;;13.40;;
39880;SDS011;25554;44.954;10.068;2023-12-20T15:46:13;26.08;;;14.02;;
39880;SDS011;25554;44.954;10.068;2023-12-20T15:48:40;24.13;;;14.00;;
39880;SDS011;25554;44.954;10.068;2023-12-20T15:51:08;27.98;;;13.73;;
39880;SDS011;25554;44.954;10.068;2023-12-20T15:53:35;22.75;;;13.57;;
39880;SDS011;25554;44.954;10.068;2023-12-20T15:56:02;21.90;;;14.25;;
39880;SDS011;25554;44.954;10.068;2023-12-20T15:58:29;23.60;;;13.60;;
39880;SDS011;25554;44.954;10.068;2023-12-20T16:00:56;21.08;;;13.48;;
39880;SDS011;25554;44.954;10.068;2023-12-20T16:03:23;22.63;;;14.25;;
39880;SDS011;25554;44.954;10.068;2023-12-20T16:05:49;23.50;;;14.65;;
39880;SDS011;25554;44.954;10.068;2023-12-20T16:08:16;25.38;;;14.65;;
39880;SDS011;25554;44.954;10.068;2023-12-20T16:13:08;28.42;;;16.60;;
39880;SDS011;25554;44.954;10.068;2023-12-20T16:15:35;26.13;;;16.38;;
39880;SDS011;25554;44.954;10.068;2023-12-20T16:20:28;26.02;;;14.55;;
39880;SDS011;25554;44.954;10.068;2023-12-20T16:25:21;24.75;;;14.85;;
39880;SDS011;25554;44.954;10.068;2023-12-20T16:27:48;23.95;;;14.77;;
39880;SDS011;25554;44.954;10.068;2023-12-20T16:32:41;24.92;;;13.35;;
39880;SDS011;25554;44.954;10.068;2023-12-20T16:35:07;20.38;;;13.48;;
39880;SDS011;25554;44.954;10.068;2023-12-20T16:37:34;21.85;;;14.60;;
39880;SDS011;25554;44.954;10.068;2023-12-20T16:40:06;24.10;;;14.05;;
39880;SDS011;25554;44.954;10.068;2023-12-20T16:42:33;23.67;;;13.50;;
39880;SDS011;25554;44.954;10.068;2023-12-20T16:45:00;22.58;;;14.45;;
39880;SDS011;25554;44.954;10.068;2023-12-20T16:49:52;22.00;;;14.02;;
39880;SDS011;25554;44.954;10.068;2023-12-20T16:54:45;25.90;;;16.33;;
39880;SDS011;25554;44.954;10.068;2023-12-20T16:57:11;33.38;;;17.20;;
39880;SDS011;25554;44.954;10.068;2023-12-20T17:02:07;23.40;;;14.85;;
39880;SDS011;25554;44.954;10.068;2023-12-20T17:04:33;37.60;;;18.58;;
39880;SDS011;25554;44.954;10.068;2023-12-20T17:07:01;28.98;;;17.58;;
39880;SDS011;25554;44.954;10.068;2023-12-20T17:11:54;25.25;;;17.33;;
39880;SDS011;25554;44.954;10.068;2023-12-20T17:14:21;28.02;;;15.90;;
39880;SDS011;25554;44.954;10.068;2023-12-20T17:16:47;25.15;;;16.77;;
39880;SDS011;25554;44.954;10.068;2023-12-20T17:19:14;29.15;;;16.80;;
39880;SDS011;25554;44.954;10.068;2023-12-20T17:24:07;24.33;;;14.75;;
39880;SDS011;25554;44.954;10.068;2023-12-20T17:28:59;22.23;;;14.45;;
39880;SDS011;25554;44.954;10.068;2023-12-20T17:31:25;28.10;;;18.30;;
39880;SDS011;25554;44.954;10.068;2023-12-20T17:36:18;26.23;;;15.85;;
39880;SDS011;25554;44.954;10.068;2023-12-20T17:38:44;32.10;;;16.13;;
39880;SDS011;25554;44.954;10.068;2023-12-20T17:43:37;27.95;;;15.63;;
39880;SDS011;25554;44.954;10.068;2023-12-20T17:48:29;29.63;;;15.23;;
39880;SDS011;25554;44.954;10.068;2023-12-20T17:53:22;24.23;;;15.40;;
39880;SDS011;25554;44.954;10.068;2023-12-20T17:58:14;30.10;;;16.10;;
39880;SDS011;25554;44.954;10.068;2023-12-20T18:00:40;29.65;;;15.98;;
39880;SDS011;25554;44.954;10.068;2023-12-20T18:05:33;29.48;;;17.45;;
39880;SDS011;25554;44.954;10.068;2023-12-20T18:07:59;31.48;;;17.95;;
39880;SDS011;25554;44.954;10.068;2023-12-20T18:10:25;38.67;;;18.80;;
39880;SDS011;25554;44.954;10.068;2023-12-20T18:12:52;33.53;;;16.48;;
39880;SDS011;25554;44.954;10.068;2023-12-20T18:15:18;25.52;;;15.32;;
39880;SDS011;25554;44.954;10.068;2023-12-20T18:17:45;25.20;;;14.73;;
39880;SDS011;25554;44.954;10.068;2023-12-20T18:20:13;23.33;;;12.68;;